Millville, Ohio
Current Conditions -  °F | °C
As of 4:53 AM on Monday 26 Jan 2015 (Local Time) from KHAO Reporting Station
Overcast Overcast  
Wind Chill:   Ceiling: 2700
Heat Index: 21°   Visibility: 10mi
Dew Point: 16°   Wind: 14mph
Humidity: 81%   Direction: 350°N
Pressure: 29.84"   Gusts: 20mph
Location:  39.4158°N, 84.6488°W
Report Text: KHAO 260953Z AUTO 35012G17KT 10SM FEW016 OVC027 M06/M09 A2984 RMK AO2 SNE01 SLP111 P0000 T10611089
Loading
Personal Weather Stations






























Interactive Weather Map New forecast layout! Learn more

10-Day Weather Forecast

Advertisements
Track Severe Weather on mobile